Time;durP1;ratioP1;P1;durP2;ratioP2;P2;SDS_P1;SDS_P2;PMS_P1;PMS_P2;Temp;Humidity;BMP_temperature;BMP_pressure;BME280_temperature;BME280_humidity;BME280_pressure;Samples;Min_cycle;Max_cycle;Signal;HPM_P1;HPM_P2
2023/01/26 00:02:54;;;;;;;33.77;17.43;;;3.30;99.90;;;0.79;100.00;100865.81;10678171;27;20108;-79
2023/01/26 00:07:57;;;;;;;40.77;18.80;;;3.20;99.90;;;0.78;100.00;100866.72;10659889;27;20500;-79
2023/01/26 00:13:00;;;;;;;31.50;15.97;;;3.30;99.90;;;0.75;100.00;100852.03;10650986;27;20055;-80
2023/01/26 00:18:03;;;;;;;34.93;17.50;;;3.30;99.90;;;0.80;100.00;100859.63;10658372;27;20504;-80
2023/01/26 00:23:06;;;;;;;34.67;16.93;;;3.30;99.90;;;0.79;100.00;100861.41;10641562;27;20062;-79
2023/01/26 00:28:09;;;;;;;29.23;16.10;;;3.30;99.90;;;0.78;100.00;100846.66;10672896;27;20054;-79
2023/01/26 00:33:12;;;;;;;37.07;17.63;;;3.30;99.90;;;0.81;100.00;100853.47;10672446;27;20061;-79
2023/01/26 00:38:15;;;;;;;42.13;21.13;;;3.30;99.90;;;0.78;100.00;100849.25;10657746;27;20061;-78
2023/01/26 00:43:18;;;;;;;42.07;20.53;;;3.30;99.90;;;0.79;100.00;100842.25;10666294;27;20088;-79
2023/01/26 00:48:21;;;;;;;41.50;19.03;;;3.30;99.90;;;0.78;100.00;100844.03;10695063;27;20438;-78
2023/01/26 00:53:26;;;;;;;34.47;16.40;;;3.30;99.90;;;0.77;100.00;100833.63;10679540;27;20059;-79
2023/01/26 00:58:29;;;;;;;38.03;18.27;;;3.30;99.90;;;0.76;100.00;100842.41;10665248;27;20097;-78
2023/01/26 01:03:32;;;;;;;38.03;17.50;;;3.30;99.90;;;0.74;100.00;100839.06;10638477;27;20051;-78
2023/01/26 01:08:36;;;;;;;32.10;14.97;;;3.20;99.90;;;0.73;100.00;100822.53;10656750;27;20095;-78
2023/01/26 01:13:39;;;;;;;41.43;16.80;;;3.20;99.90;;;0.69;100.00;100828.84;10663087;27;20065;-78
2023/01/26 01:18:43;;;;;;;50.50;21.03;;;3.20;99.90;;;0.67;100.00;100827.28;10652764;27;20066;-78
2023/01/26 01:23:46;;;;;;;45.80;21.60;;;3.20;99.90;;;0.64;100.00;100820.44;10655729;27;20055;-78
2023/01/26 01:28:56;;;;;;;42.70;17.27;;;3.10;99.90;;;0.62;100.00;100818.84;10670633;27;20108;-78
2023/01/26 01:34:02;;;;;;;39.73;17.90;;;3.10;99.90;;;0.59;100.00;100812.00;10644578;27;20462;-78
2023/01/26 01:39:05;;;;;;;39.20;18.07;;;3.00;99.90;;;0.61;100.00;100806.72;10639005;27;20070;-77
2023/01/26 01:44:26;;;;;;;39.37;17.40;;;3.10;99.90;;;0.61;100.00;100804.94;10681187;27;20138;-79
2023/01/26 01:49:48;;;;;;;33.73;16.03;;;3.10;99.90;;;0.61;100.00;100794.47;10690513;27;20120;-79
2023/01/26 01:55:07;;;;;;;31.58;13.40;;;3.10;99.90;;;0.62;100.00;100790.09;10656970;27;20564;-78
2023/01/26 02:00:17;;;;;;;38.53;17.73;;;3.10;99.90;;;0.64;100.00;100794.28;10674813;27;20055;-78
2023/01/26 02:05:30;;;;;;;34.33;15.37;;;3.20;99.90;;;0.65;100.00;100789.88;10695209;27;20059;-78
2023/01/26 02:10:33;;;;;;;34.33;16.77;;;3.10;99.90;;;0.66;100.00;100787.19;10652994;27;20059;-78
2023/01/26 02:15:36;;;;;;;28.33;15.43;;;3.10;99.90;;;0.66;100.00;100779.34;10637958;27;20058;-79
2023/01/26 02:20:46;;;;;;;37.37;15.73;;;3.20;99.90;;;0.63;100.00;100763.81;10643222;27;20059;-79
2023/01/26 02:25:51;;;;;;;35.00;16.03;;;3.10;99.90;;;0.64;100.00;100756.81;10666914;27;20107;-79
2023/01/26 02:30:55;;;;;;;39.93;18.00;;;3.10;99.90;;;0.59;100.00;100744.00;10657506;27;20047;-79
2023/01/26 02:36:01;;;;;;;38.10;17.47;;;3.10;99.90;;;0.63;100.00;100740.28;10634284;27;20095;-78
2023/01/26 02:41:11;;;;;;;37.53;17.17;;;3.10;99.90;;;0.62;100.00;100738.59;10674734;27;20055;-78
2023/01/26 02:46:14;;;;;;;29.33;14.67;;;3.10;99.90;;;0.59;100.00;100722.25;10642409;27;20543;-79
2023/01/26 02:51:17;;;;;;;34.13;17.10;;;3.10;99.90;;;0.61;100.00;100725.63;10652818;27;20055;-79
2023/01/26 02:56:20;;;;;;;41.73;18.43;;;3.10;99.90;;;0.62;100.00;100725.53;10645835;27;20058;-78
2023/01/26 03:01:23;;;;;;;44.67;18.60;;;3.10;99.90;;;0.60;100.00;100716.94;10673095;27;21769;-78
2023/01/26 03:06:26;;;;;;;36.20;17.00;;;3.10;99.90;;;0.62;100.00;100711.63;10703536;27;20106;-79
2023/01/26 03:11:40;;;;;;;37.30;17.57;;;3.10;99.90;;;0.57;100.00;100701.41;10660328;27;20432;-78
2023/01/26 03:16:44;;;;;;;36.30;16.53;;;3.10;99.90;;;0.59;100.00;100698.72;10671083;27;20143;-79
2023/01/26 03:27:27;;;;;;;40.77;17.50;;;3.10;99.90;;;0.55;100.00;100695.44;10675717;27;20113;-78
2023/01/26 03:32:30;;;;;;;39.63;17.90;;;3.00;99.90;;;0.52;100.00;100687.78;10644376;27;20055;-79
2023/01/26 03:37:35;;;;;;;34.10;15.93;;;3.00;99.90;;;0.51;100.00;100683.47;10645381;27;20598;-79
2023/01/26 03:59:07;;;;;;;39.22;18.50;;;3.00;99.90;;;0.45;100.00;100663.78;10659023;27;20512;-78
2023/01/26 04:09:32;;;;;;;41.83;17.50;;;3.00;99.90;;;0.48;100.00;100657.50;10676315;27;20123;-78
2023/01/26 04:25:20;;;;;;;44.83;17.83;;;2.90;99.90;;;0.47;100.00;100650.59;10673847;27;20066;-78
2023/01/26 04:30:23;;;;;;;38.07;15.90;;;3.00;99.90;;;0.46;100.00;100646.31;10663936;27;20039;-77
2023/01/26 04:35:27;;;;;;;40.97;17.50;;;2.90;99.90;;;0.46;100.00;100643.69;10642698;27;20104;-78
2023/01/26 04:40:29;;;;;;;50.40;17.90;;;2.90;99.90;;;0.47;100.00;100642.75;10623821;27;20090;-77
2023/01/26 04:45:32;;;;;;;28.40;11.97;;;2.90;99.90;;;0.47;100.00;100638.34;10677873;27;20087;-78
2023/01/26 04:50:35;;;;;;;30.80;14.63;;;2.90;99.90;;;0.45;100.00;100634.16;10650576;27;20132;-78
2023/01/26 04:55:38;;;;;;;42.67;17.47;;;2.90;99.90;;;0.44;100.00;100630.72;10637290;27;20066;-78
2023/01/26 05:00:41;;;;;;;36.07;15.33;;;3.00;99.90;;;0.43;100.00;100628.19;10662192;27;20081;-78
2023/01/26 05:05:49;;;;;;;38.93;17.73;;;2.90;99.90;;;0.46;100.00;100638.47;10649986;27;20062;-78
2023/01/26 05:10:52;;;;;;;43.90;17.60;;;2.90;99.90;;;0.45;100.00;100632.38;10676415;27;20525;-79
2023/01/26 05:15:55;;;;;;;41.50;17.30;;;3.00;99.90;;;0.45;100.00;100635.00;10646537;27;20085;-78
2023/01/26 05:20:58;;;;;;;45.70;17.40;;;3.00;99.90;;;0.43;100.00;100638.66;10695355;27;20104;-78
2023/01/26 05:26:02;;;;;;;36.53;16.03;;;3.00;99.90;;;0.42;100.00;100634.34;10690408;27;20094;-78
2023/01/26 05:31:05;;;;;;;30.07;15.40;;;2.90;99.90;;;0.42;100.00;100629.09;10637770;27;20054;-78
2023/01/26 05:36:09;;;;;;;40.03;15.93;;;2.90;99.90;;;0.42;100.00;100637.81;10674656;27;20063;-78
2023/01/26 05:41:12;;;;;;;40.60;16.67;;;2.90;99.90;;;0.41;100.00;100640.50;10663971;27;20062;-78
2023/01/26 05:46:15;;;;;;;29.13;12.63;;;2.90;99.90;;;0.36;100.00;100637.31;10638960;27;20051;-78
2023/01/26 05:51:18;;;;;;;31.03;14.47;;;2.90;99.90;;;0.35;100.00;100644.31;10641342;27;20108;-82
2023/01/26 05:56:21;;;;;;;39.00;16.07;;;2.90;99.90;;;0.35;100.00;100646.09;10644794;27;20059;-80
2023/01/26 06:01:24;;;;;;;33.63;12.87;;;2.80;99.90;;;0.32;100.00;100636.69;10662860;27;20054;-77
2023/01/26 06:06:27;;;;;;;40.47;16.73;;;2.80;99.90;;;0.31;100.00;100640.25;10670321;27;20070;-77
2023/01/26 06:11:32;;;;;;;36.20;14.43;;;2.80;99.90;;;0.30;100.00;100640.31;10682321;27;20081;-77
2023/01/26 06:16:35;;;;;;;29.53;12.63;;;2.70;99.90;;;0.29;100.00;100641.25;10638263;27;20055;-77
2023/01/26 06:21:38;;;;;;;35.97;12.37;;;2.80;99.90;;;0.24;100.00;100644.13;10661454;27;20141;-76
2023/01/26 06:26:41;;;;;;;30.40;13.20;;;2.70;99.90;;;0.20;100.00;100638.25;10637026;27;20070;-77
2023/01/26 06:31:44;;;;;;;30.80;12.97;;;2.70;99.90;;;0.18;100.00;100637.50;10654598;27;20427;-77
2023/01/26 06:36:47;;;;;;;22.77;11.13;;;2.60;99.90;;;0.18;100.00;100631.41;10660909;27;20050;-76
2023/01/26 06:41:49;;;;;;;35.47;13.50;;;2.60;99.90;;;0.19;100.00;100631.34;10694540;27;20809;-77
2023/01/26 06:46:53;;;;;;;30.90;13.77;;;2.70;99.90;;;0.21;100.00;100629.47;10662073;27;20082;-77
2023/01/26 06:52:26;;;;;;;31.80;13.13;;;2.70;99.90;;;0.19;100.00;100631.34;10660275;27;20078;-77
2023/01/26 06:57:29;;;;;;;29.55;13.90;;;2.70;99.90;;;0.21;100.00;100629.47;10638058;27;20055;-77
2023/01/26 07:02:32;;;;;;;34.27;16.77;;;2.70;99.90;;;0.20;100.00;100614.72;10677330;27;20069;-77
2023/01/26 07:07:36;;;;;;;33.40;15.83;;;2.70;99.90;;;0.20;100.00;100622.56;10694602;27;20051;-77
2023/01/26 07:12:44;;;;;;;28.50;14.50;;;2.70;99.90;;;0.20;100.00;100617.34;10642049;27;20067;-77
2023/01/26 07:17:48;;;;;;;41.73;16.57;;;2.70;99.90;;;0.22;100.00;100618.09;10679232;27;20062;-78
2023/01/26 07:22:51;;;;;;;47.63;20.47;;;2.70;99.90;;;0.26;100.00;100616.97;10683291;27;20066;-78
2023/01/26 07:27:58;;;;;;;40.43;16.23;;;2.70;99.90;;;0.26;100.00;100611.75;10652831;27;20063;-77
2023/01/26 07:33:01;;;;;;;34.73;16.07;;;2.80;99.90;;;0.30;100.00;100615.03;10621077;27;20108;-77
2023/01/26 07:38:05;;;;;;;32.27;16.13;;;2.80;99.90;;;0.33;100.00;100606.16;10666382;27;20065;-78
2023/01/26 07:43:08;;;;;;;34.33;15.00;;;2.80;99.90;;;0.36;100.00;100608.56;10650551;27;20059;-78
2023/01/26 07:48:11;;;;;;;33.20;15.10;;;2.80;99.90;;;0.37;100.00;100600.66;10678651;27;20070;-77
2023/01/26 07:53:18;;;;;;;26.80;12.73;;;2.90;99.90;;;0.41;100.00;100598.66;10667414;27;20055;-78
2023/01/26 07:58:21;;;;;;;25.77;11.63;;;2.90;99.90;;;0.47;100.00;100600.91;10642473;27;20059;-78
2023/01/26 08:03:24;;;;;;;28.27;12.30;;;3.00;99.90;;;0.51;100.00;100603.25;10651242;27;20094;-78
2023/01/26 08:08:55;;;;;;;21.27;10.23;;;3.00;99.90;;;0.58;100.00;100601.09;10657492;27;20055;-78
2023/01/26 08:13:58;;;;;;;24.50;11.43;;;3.10;99.90;;;0.64;100.00;100592.88;10670197;27;20093;-77
2023/01/26 08:19:01;;;;;;;23.27;9.80;;;3.10;99.90;;;0.69;100.00;100603.06;10661932;27;20063;-77
2023/01/26 08:24:05;;;;;;;25.00;10.87;;;3.20;99.90;;;0.73;100.00;100594.09;10679846;27;20514;-77
2023/01/26 08:29:08;;;;;;;26.77;10.87;;;3.20;99.90;;;0.76;100.00;100593.91;10680528;27;20112;-77
2023/01/26 08:34:11;;;;;;;58.23;16.90;;;3.30;99.90;;;0.82;100.00;100600.53;10665998;27;20150;-77
2023/01/26 08:39:14;;;;;;;27.40;12.60;;;3.30;99.90;;;0.86;100.00;100594.16;10680888;27;20507;-77
2023/01/26 08:44:17;;;;;;;25.73;11.17;;;3.30;99.90;;;0.90;100.00;100590.41;10706391;27;20066;-77
2023/01/26 08:49:20;;;;;;;26.53;13.13;;;3.40;99.90;;;0.94;100.00;100591.91;10676395;27;20538;-77
2023/01/26 08:54:23;;;;;;;25.67;12.47;;;3.40;99.90;;;0.96;100.00;100595.25;10657548;27;20112;-77
2023/01/26 08:59:26;;;;;;;28.47;12.27;;;3.50;99.90;;;1.00;100.00;100594.13;10652525;27;20145;-77
2023/01/26 09:04:29;;;;;;;21.10;11.67;;;3.50;99.90;;;1.06;100.00;100601.59;10686900;27;20047;-77
2023/01/26 09:09:32;;;;;;;25.03;11.30;;;3.60;99.90;;;1.13;100.00;100602.88;10641839;27;20100;-78
2023/01/26 09:14:35;;;;;;;27.97;12.90;;;3.70;99.90;;;1.19;100.00;100592.00;10676342;27;20062;-78
2023/01/26 09:19:39;;;;;;;22.07;9.77;;;3.70;99.90;;;1.29;100.00;100602.75;10667118;27;20061;-77
2023/01/26 09:24:42;;;;;;;20.80;10.33;;;3.80;99.90;;;1.34;100.00;100605.91;10659472;27;20063;-77
2023/01/26 09:29:45;;;;;;;17.50;8.53;;;3.80;99.90;;;1.41;100.00;100595.88;10648893;27;20066;-79
2023/01/26 09:34:48;;;;;;;17.87;9.27;;;3.90;99.90;;;1.44;100.00;100593.91;10691471;27;20059;-79
2023/01/26 09:39:51;;;;;;;17.30;8.50;;;4.00;99.90;;;1.50;100.00;100588.28;10642942;27;20059;-78
2023/01/26 09:45:12;;;;;;;18.80;9.00;;;4.00;99.90;;;1.54;100.00;100597.59;10642965;27;20474;-78
2023/01/26 09:50:23;;;;;;;17.10;8.40;;;4.10;99.90;;;1.56;100.00;100584.38;10639190;27;20055;-79
2023/01/26 09:55:27;;;;;;;15.33;7.70;;;4.10;99.90;;;1.59;100.00;100568.47;10640588;27;20271;-78
2023/01/26 10:00:43;;;;;;;15.53;7.03;;;4.10;99.90;;;1.54;100.00;100562.69;10667876;27;20550;-79
2023/01/26 10:06:26;;;;;;;15.77;7.07;;;4.10;99.90;;;1.47;100.00;100564.06;10640351;27;20062;-78
2023/01/26 10:11:42;;;;;;;13.27;6.13;;;4.00;99.90;;;1.47;100.00;100553.56;10657902;27;20149;-79
2023/01/26 10:16:50;;;;;;;15.53;7.50;;;4.00;99.90;;;1.41;99.82;100543.50;10654102;27;20051;-78
2023/01/26 10:21:58;;;;;;;14.50;7.10;;;4.00;99.90;;;1.40;98.96;100537.44;10674411;27;20385;-79
2023/01/26 10:27:01;;;;;;;19.00;7.07;;;4.00;99.90;;;1.41;98.66;100535.66;10650127;27;20055;-79
2023/01/26 10:32:04;;;;;;;12.03;6.57;;;3.90;99.90;;;1.41;98.28;100517.31;10638098;27;20063;-79
2023/01/26 10:37:28;;;;;;;17.07;7.90;;;3.90;99.90;;;1.41;97.47;100510.31;10688735;27;20530;-78
2023/01/26 10:42:33;;;;;;;16.23;7.37;;;3.90;99.90;;;1.45;96.83;100509.16;10678675;27;20104;-79
2023/01/26 10:47:37;;;;;;;19.87;8.70;;;4.00;99.90;;;1.45;95.94;100511.78;10651730;27;20066;-79
2023/01/26 10:53:01;;;;;;;15.67;7.80;;;4.00;99.90;;;1.45;95.63;100503.94;10639470;27;20054;-79
2023/01/26 10:58:04;;;;;;;15.60;7.97;;;4.00;99.90;;;1.43;94.76;100502.34;10638086;27;20062;-78
2023/01/26 11:03:18;;;;;;;18.40;8.40;;;4.00;99.90;;;1.43;94.69;100499.72;10652085;27;20090;-78
2023/01/26 11:08:36;;;;;;;15.80;7.70;;;4.00;99.90;;;1.43;94.48;100486.63;10659328;27;20051;-78
2023/01/26 11:13:39;;;;;;;19.60;8.20;;;4.00;99.90;;;1.42;93.69;100483.16;10647149;27;20051;-79
2023/01/26 11:19:02;;;;;;;18.53;8.63;;;3.90;99.90;;;1.44;93.72;100475.19;10675723;27;20059;-79
2023/01/26 11:24:39;;;;;;;15.30;7.63;;;4.00;99.90;;;1.40;93.14;100469.34;10662426;27;20055;-78
2023/01/26 11:30:06;;;;;;;14.30;7.00;;;3.90;99.90;;;1.33;91.95;100463.69;10646942;27;20059;-79
2023/01/26 11:35:14;;;;;;;13.63;7.53;;;3.90;99.90;;;1.32;91.94;100454.16;10663256;27;20059;-78
2023/01/26 11:40:39;;;;;;;39.60;18.20;;;3.90;99.90;;;1.32;91.68;100455.94;10663278;27;20112;-77
2023/01/26 11:46:14;;;;;;;18.50;11.00;;;3.80;99.90;;;1.24;90.37;100453.81;10661590;27;20562;-78
2023/01/26 11:52:04;;;;;;;19.07;9.53;;;3.80;99.90;;;1.22;89.52;100434.75;10692197;27;20078;-78
2023/01/26 11:57:07;;;;;;;14.27;7.20;;;3.70;99.90;;;1.18;89.50;100435.91;10679061;27;20104;-78
2023/01/26 12:02:24;;;;;;;21.50;9.43;;;3.70;99.90;;;1.16;89.36;100413.38;10681880;27;20098;-79
2023/01/26 12:07:54;;;;;;;17.37;7.80;;;3.70;99.90;;;1.13;89.11;100403.09;10656818;27;20055;-78
2023/01/26 12:13:09;;;;;;;14.27;6.73;;;3.70;99.90;;;1.09;89.29;100396.44;10662077;27;20063;-78
2023/01/26 12:18:22;;;;;;;12.57;6.77;;;3.60;99.90;;;1.07;89.32;100394.72;10653841;27;20078;-79
2023/01/26 12:23:56;;;;;;;21.83;8.50;;;3.60;99.90;;;1.07;89.29;100391.28;10652946;27;20104;-78
2023/01/26 12:29:19;;;;;;;14.27;7.00;;;3.60;99.90;;;1.06;89.21;100387.81;10670204;27;20047;-79
2023/01/26 12:34:28;;;;;;;19.67;9.97;;;3.60;99.90;;;1.05;89.03;100386.16;10643994;27;20058;-79
2023/01/26 12:39:44;;;;;;;13.63;7.17;;;3.60;99.90;;;1.06;89.20;100371.28;10664277;27;20062;-79
2023/01/26 12:45:00;;;;;;;17.30;6.60;;;3.60;99.90;;;1.09;89.18;100371.09;10666912;27;20065;-78
2023/01/26 12:50:29;;;;;;;18.07;8.67;;;3.60;99.90;;;1.07;88.40;100376.41;10669678;27;20062;-78
2023/01/26 12:55:48;;;;;;;21.70;8.90;;;3.60;99.90;;;1.09;87.77;100371.09;10650440;27;20508;-79
2023/01/26 13:01:08;;;;;;;22.17;8.70;;;3.60;99.90;;;1.14;87.77;100368.13;10656987;27;20504;-78
2023/01/26 13:06:11;;;;;;;23.53;11.90;;;3.70;99.90;;;1.12;86.45;100365.63;10662966;27;20055;-77
2023/01/26 13:11:47;;;;;;;18.30;9.67;;;3.70;99.90;;;1.11;86.33;100358.72;10690579;27;20059;-78
2023/01/26 13:16:50;;;;;;;19.33;10.17;;;3.60;99.90;;;1.13;86.40;100361.22;10656147;27;20055;-78
2023/01/26 13:21:53;;;;;;;17.77;8.10;;;3.70;99.90;;;1.12;85.93;100355.16;10651178;27;20090;-78
2023/01/26 13:26:58;;;;;;;14.00;7.20;;;3.60;99.90;;;1.07;84.76;100352.00;10672732;27;20419;-79
2023/01/26 13:32:21;;;;;;;17.17;8.37;;;3.60;99.90;;;1.04;85.02;100354.84;10672047;27;20058;-78
2023/01/26 13:37:57;;;;;;;26.23;11.20;;;3.60;99.90;;;1.02;85.49;100354.09;10641953;27;20142;-77
2023/01/26 13:43:31;;;;;;;16.80;8.50;;;3.50;99.90;;;0.96;85.07;100354.50;10678418;27;20062;-78
2023/01/26 13:48:48;;;;;;;21.50;10.53;;;3.50;99.90;;;0.92;84.84;100346.03;10699638;27;20162;-79
2023/01/26 13:54:01;;;;;;;28.47;14.43;;;3.50;99.90;;;0.93;85.63;100341.66;10645482;27;20108;-77
2023/01/26 13:59:18;;;;;;;21.40;9.97;;;3.40;99.90;;;0.94;85.98;100338.09;10699872;27;20054;-79
2023/01/26 14:04:25;;;;;;;20.70;8.17;;;3.40;99.90;;;0.97;86.53;100346.56;10646150;27;20062;-78
2023/01/26 14:09:32;;;;;;;18.80;9.33;;;3.50;99.90;;;1.00;87.48;100345.53;10662843;27;20112;-78
2023/01/26 14:14:36;;;;;;;29.50;11.87;;;3.50;99.90;;;1.01;87.56;100347.19;10660643;27;20112;-78
2023/01/26 14:19:47;;;;;;;20.93;9.93;;;3.50;99.90;;;1.01;88.14;100345.41;10647003;27;20085;-77
2023/01/26 14:24:52;;;;;;;24.43;10.83;;;3.50;99.90;;;1.03;88.65;100350.56;10646028;27;20055;-77
2023/01/26 14:29:55;;;;;;;35.93;16.00;;;3.60;99.90;;;1.03;88.92;100348.78;10648886;27;20051;-77
2023/01/26 14:34:59;;;;;;;35.43;13.13;;;3.60;99.90;;;1.02;89.45;100346.25;10673763;27;20108;-78
2023/01/26 14:40:18;;;;;;;18.80;9.13;;;3.60;99.90;;;0.97;89.17;100349.19;10642921;27;20135;-78
2023/01/26 14:45:30;;;;;;;21.00;10.37;;;3.50;99.90;;;0.96;89.30;100344.03;10672388;27;20099;-78
2023/01/26 14:50:35;;;;;;;18.80;7.40;;;3.50;99.90;;;0.90;89.01;100344.44;10643494;27;20415;-78
2023/01/26 14:55:42;;;;;;;17.23;8.07;;;3.50;99.90;;;0.88;88.67;100343.72;10671609;27;20127;-78
2023/01/26 15:00:49;;;;;;;17.67;7.43;;;3.40;99.90;;;0.84;88.85;100339.63;10663365;27;20155;-78
2023/01/26 15:06:17;;;;;;;30.53;13.40;;;3.40;99.90;;;0.82;89.06;100338.91;10667342;27;20067;-78
2023/01/26 15:16:57;;;;;;;66.37;27.43;;;3.30;99.90;;;0.72;87.92;100341.28;10674273;27;20500;-79
2023/01/26 15:22:00;;;;;;;48.47;23.37;;;3.30;99.90;;;0.71;87.91;100343.06;10689024;27;20100;-78
2023/01/26 15:27:05;;;;;;;24.00;10.50;;;3.30;99.90;;;0.68;88.37;100339.84;10639957;27;20059;-77
2023/01/26 15:32:31;;;;;;;17.00;9.20;;;3.20;99.90;;;0.68;88.73;100351.13;10656147;27;20063;-77
2023/01/26 15:37:34;;;;;;;20.43;10.93;;;3.20;99.90;;;0.62;87.84;100351.53;10648295;27;20143;-77
2023/01/26 15:42:38;;;;;;;24.77;11.80;;;3.20;99.90;;;0.61;87.91;100344.63;10647409;27;20054;-79
2023/01/26 15:47:41;;;;;;;22.50;11.43;;;3.20;99.90;;;0.58;88.00;100342.19;10661591;27;20084;-77
2023/01/26 15:52:44;;;;;;;23.20;11.03;;;3.20;99.90;;;0.57;88.55;100344.91;10627446;27;20051;-78
2023/01/26 15:57:47;;;;;;;72.87;25.60;;;3.20;99.90;;;0.55;89.05;100344.19;10618654;27;20062;-77
2023/01/26 16:02:50;;;;;;;35.10;16.57;;;3.10;99.90;;;0.52;89.13;100348.66;10649145;27;20055;-78
2023/01/26 16:07:53;;;;;;;35.87;15.17;;;3.10;99.90;;;0.49;89.80;100350.66;10684080;27;20097;-78
2023/01/26 16:12:56;;;;;;;30.70;13.23;;;3.10;99.90;;;0.49;89.73;100358.50;10652156;27;20105;-78
2023/01/26 16:17:59;;;;;;;23.27;11.47;;;3.10;99.90;;;0.47;90.27;100357.75;10688772;27;20062;-78
2023/01/26 16:23:02;;;;;;;20.03;11.10;;;3.00;99.90;;;0.45;90.53;100351.78;10701954;27;20066;-78
2023/01/26 16:28:05;;;;;;;26.07;11.33;;;3.10;99.90;;;0.42;90.74;100349.34;10676354;27;20059;-78
2023/01/26 16:33:12;;;;;;;32.33;14.33;;;3.00;99.90;;;0.39;90.56;100345.19;10663262;27;20066;-78
2023/01/26 16:38:15;;;;;;;41.70;17.13;;;2.90;99.90;;;0.37;91.03;100351.47;10686608;27;20066;-78
2023/01/26 16:43:28;;;;;;;34.77;14.97;;;2.90;99.90;;;0.36;91.25;100349.75;10654100;27;20420;-78
2023/01/26 16:48:33;;;;;;;42.37;15.50;;;3.00;99.90;;;0.34;91.99;100354.25;10655850;27;20063;-78
2023/01/26 16:53:37;;;;;;;48.97;18.87;;;2.90;99.90;;;0.31;91.91;100351.84;10679304;27;20108;-78
2023/01/26 16:58:40;;;;;;;57.43;19.13;;;2.90;99.90;;;0.26;92.14;100339.91;10683629;27;20104;-78
2023/01/26 17:03:44;;;;;;;39.10;14.70;;;2.80;99.90;;;0.24;92.39;100346.16;10647503;27;20063;-78
2023/01/26 17:08:48;;;;;;;47.27;18.10;;;2.80;99.90;;;0.22;92.34;100341.03;10681832;27;20058;-78
2023/01/26 17:13:51;;;;;;;47.80;18.83;;;2.80;99.90;;;0.18;92.68;100336.97;10660297;27;20112;-78
2023/01/26 17:18:55;;;;;;;44.17;18.70;;;2.80;99.90;;;0.16;92.86;100327.53;10663367;27;20059;-78
2023/01/26 17:23:58;;;;;;;45.83;17.87;;;2.80;99.90;;;0.14;93.08;100332.03;10697126;27;20513;-78
2023/01/26 17:29:02;;;;;;;43.40;17.87;;;2.70;99.90;;;0.12;93.13;100331.25;10695419;27;20153;-78
2023/01/26 17:34:05;;;;;;;44.63;17.97;;;2.70;99.90;;;0.11;93.71;100330.44;10673334;27;20078;-78
2023/01/26 17:39:09;;;;;;;31.60;14.77;;;2.70;99.90;;;0.09;93.68;100321.84;10657014;27;20465;-78
2023/01/26 17:44:14;;;;;;;35.93;15.43;;;2.60;99.90;;;0.08;94.14;100319.34;10638114;27;20116;-78
2023/01/26 17:49:19;;;;;;;30.87;13.77;;;2.60;99.90;;;0.06;94.15;100315.97;10658019;27;20062;-78
2023/01/26 17:54:23;;;;;;;35.03;14.60;;;2.60;99.90;;;0.01;94.13;100315.47;10651571;27;20151;-78
2023/01/26 17:59:26;;;;;;;31.97;14.97;;;2.60;99.90;;;-0.01;94.00;100305.91;10670198;27;20054;-78
2023/01/26 18:04:29;;;;;;;41.93;17.80;;;2.60;99.90;;;-0.03;94.33;100306.97;10647224;27;20051;-78
2023/01/26 18:09:33;;;;;;;50.97;19.43;;;2.50;99.90;;;-0.06;94.22;100297.56;10674429;27;20062;-78
2023/01/26 18:14:36;;;;;;;39.80;16.40;;;2.50;99.90;;;-0.05;93.95;100309.69;10676622;27;20454;-78
2023/01/26 18:19:39;;;;;;;44.47;18.17;;;2.50;99.90;;;-0.07;94.12;100305.47;10650711;27;20055;-77
2023/01/26 18:24:42;;;;;;;33.50;15.27;;;2.50;99.90;;;-0.06;93.97;100312.38;10636611;27;20062;-78
2023/01/26 18:29:46;;;;;;;30.03;15.07;;;2.50;99.90;;;-0.06;94.31;100323.69;10656594;27;20166;-78
2023/01/26 18:34:49;;;;;;;62.57;22.07;;;2.50;99.90;;;-0.04;94.34;100327.03;10653451;27;20059;-78
2023/01/26 18:39:52;;;;;;;44.67;18.57;;;2.50;99.90;;;-0.06;94.44;100317.59;10637108;27;20055;-77
2023/01/26 18:44:59;;;;;;;39.10;17.40;;;2.50;99.90;;;-0.12;94.51;100299.69;10620278;27;20055;-77
2023/01/26 18:50:04;;;;;;;30.03;13.33;;;2.40;99.90;;;-0.12;94.38;100315.38;10668381;27;20423;-77
2023/01/26 18:55:08;;;;;;;46.93;21.50;;;2.40;99.90;;;-0.14;94.78;100314.63;10678690;27;20536;-77
2023/01/26 19:00:12;;;;;;;38.13;16.83;;;2.40;99.90;;;-0.15;94.96;100311.19;10664207;27;20065;-77
2023/01/26 19:05:15;;;;;;;37.43;15.97;;;2.40;99.90;;;-0.14;94.46;100305.03;10642897;27;20134;-78
2023/01/26 19:10:18;;;;;;;37.30;15.83;;;2.40;99.90;;;-0.17;94.48;100302.63;10656365;27;20500;-78
2023/01/26 19:15:21;;;;;;;51.83;18.00;;;2.40;99.90;;;-0.19;94.28;100301.03;10677678;27;20077;-77
2023/01/26 19:20:25;;;;;;;37.77;14.83;;;2.40;99.90;;;-0.23;94.22;100300.41;10680133;27;20061;-78
2023/01/26 19:25:27;;;;;;;29.73;14.30;;;2.40;99.90;;;-0.23;94.75;100307.41;10643948;27;20066;-78
2023/01/26 19:30:32;;;;;;;27.27;12.13;;;2.40;99.90;;;-0.25;94.72;100291.81;10650657;27;20063;-78
2023/01/26 19:35:36;;;;;;;67.03;22.80;;;2.30;99.90;;;-0.26;94.55;100295.34;10676445;27;20150;-78
2023/01/26 19:40:42;;;;;;;53.60;17.80;;;2.30;99.90;;;-0.28;94.87;100290.22;10649976;27;20100;-78
2023/01/26 19:45:51;;;;;;;89.03;24.60;;;2.30;99.90;;;-0.29;95.25;100298.16;10671628;27;20438;-78
2023/01/26 19:51:11;;;;;;;58.70;18.97;;;2.30;99.90;;;-0.28;95.39;100295.47;10679153;27;20057;-78
2023/01/26 19:56:22;;;;;;;42.80;14.13;;;2.30;99.90;;;-0.31;95.57;100295.63;10659325;27;20070;-78
2023/01/26 20:01:27;;;;;;;36.27;15.43;;;2.30;99.90;;;-0.34;95.45;100284.56;10677098;27;20059;-78
2023/01/26 20:06:33;;;;;;;38.33;16.07;;;2.20;99.90;;;-0.36;95.91;100283.78;10654257;27;20054;-78
2023/01/26 20:11:36;;;;;;;34.77;14.50;;;2.20;99.90;;;-0.38;96.32;100286.50;10656640;27;20391;-77
2023/01/26 20:16:40;;;;;;;41.90;16.50;;;2.20;99.90;;;-0.38;96.37;100293.50;10664567;27;20054;-77
2023/01/26 20:21:44;;;;;;;34.37;13.63;;;2.20;99.90;;;-0.39;96.73;100291.84;10688561;27;20058;-78
2023/01/26 20:26:47;;;;;;;41.23;16.10;;;2.20;99.90;;;-0.44;96.49;100289.50;10656822;27;20424;-78
2023/01/26 20:31:50;;;;;;;33.47;13.93;;;2.20;99.90;;;-0.45;96.94;100294.84;10673218;27;20070;-77
2023/01/26 20:36:58;;;;;;;32.30;14.07;;;2.10;99.90;;;-0.51;96.98;100277.78;10664872;27;20461;-78
2023/01/26 20:42:02;;;;;;;40.53;15.77;;;2.00;99.90;;;-0.52;96.94;100283.09;10677285;27;20055;-77
2023/01/26 20:47:04;;;;;;;27.33;13.03;;;2.00;99.90;;;-0.56;96.87;100285.88;10692937;27;20055;-78
2023/01/26 20:52:08;;;;;;;30.80;13.13;;;2.00;99.90;;;-0.57;96.67;100278.16;10665112;27;20531;-78
2023/01/26 20:57:11;;;;;;;27.23;12.53;;;2.00;99.90;;;-0.59;96.62;100270.44;10664124;27;20090;-78
2023/01/26 21:02:15;;;;;;;33.17;14.07;;;2.00;99.90;;;-0.58;96.93;100263.44;10665155;27;20142;-78
2023/01/26 21:07:18;;;;;;;23.87;11.70;;;2.00;99.90;;;-0.58;96.82;100264.28;10672050;27;20066;-78
2023/01/26 21:12:21;;;;;;;25.40;10.97;;;2.00;99.90;;;-0.59;96.80;100248.72;10697555;27;20112;-78
2023/01/26 21:17:24;;;;;;;24.83;10.73;;;2.00;99.90;;;-0.63;96.67;100240.22;10684535;27;20065;-78
2023/01/26 21:22:27;;;;;;;23.33;10.67;;;1.90;99.90;;;-0.67;95.88;100222.22;10679135;27;20102;-78
2023/01/26 21:27:30;;;;;;;25.47;13.00;;;1.80;99.90;;;-0.70;95.63;100222.44;10678937;27;20840;-78
2023/01/26 21:32:34;;;;;;;24.40;11.03;;;1.80;99.90;;;-0.71;95.93;100237.25;10688163;27;20082;-78
2023/01/26 21:37:37;;;;;;;20.10;8.97;;;1.80;99.90;;;-0.68;95.70;100223.16;10638735;27;20051;-78
2023/01/26 21:42:39;;;;;;;30.73;10.60;;;1.80;99.90;;;-0.65;95.29;100217.78;10640408;27;20081;-78